Big Bear Station Historical Data
Daily Summary for November 20, 2017 Units:  English    Metric   Both
« Previous Day
Next Day »
Daily Weekly Monthly Yearly Custom
  High: Low: Average:
Temperature: 61.0 °F 30.4 °F 44.4 °F
Dew Point: 37.4 °F 5.6 °F 25.7 °F
Humidity: 76 % 23 % 50 %
Wind Speed: 6.8 mph 0.0 mph 1.6 mph
Wind Gust: -999.0 mph - -
Wind:- - SW
Pressure: 30.29 in 30.18 in -
Precipitation: 0.00 in    
Historical Graphs
 
 
Tabular Data for November 20, 2017
Time Temperature Dew Point Pressure Wind Wind Speed Wind Gust Humidity Rainfall Rate (Hourly)
00:27 30.9 °F 17.8 °F 30.20 in Calm   -999.0 mph 58 % 0 in
00:57 30.9 °F 19.8 °F 30.19 in Calm   -999.0 mph 63 % 0 in
01:12 31.6 °F 18.9 °F 30.19 in South 1.7 mph -999.0 mph 59 % 0 in
01:43 30.7 °F 16.8 °F 30.19 in South 1.7 mph -999.0 mph 56 % 0 in
02:28 30.6 °F 19.1 °F 30.19 in Calm   -999.0 mph 62 % 0 in
02:43 30.4 °F 19.7 °F 30.19 in Calm   -999.0 mph 64 % 0 in
02:59 30.4 °F 21.1 °F 30.19 in Calm   -999.0 mph 68 % 0 in
03:14 31.5 °F 18.0 °F 30.19 in Calm   -999.0 mph 57 % 0 in
03:29 31.5 °F 15.9 °F 30.19 in Calm   -999.0 mph 52 % 0 in
03:44 32.4 °F 20.4 °F 30.19 in SSE 1.7 mph -999.0 mph 61 % 0 in
03:59 32.4 °F 13.4 °F 30.19 in SSW 1.1 mph -999.0 mph 45 % 0 in
04:15 31.8 °F 15.3 °F 30.19 in South 1.7 mph -999.0 mph 50 % 0 in
04:30 31.8 °F 22.1 °F 30.19 in SSE 1.7 mph -999.0 mph 67 % 0 in
04:45 32.2 °F 21.0 °F 30.19 in Calm   -999.0 mph 63 % 0 in
05:00 32.0 °F 20.4 °F 30.19 in NNE 1.1 mph -999.0 mph 62 % 0 in
05:16 32.0 °F 20.4 °F 30.19 in Calm   -999.0 mph 62 % 0 in
06:01 32.7 °F 13.2 °F 30.20 in Calm   -999.0 mph 44 % 0 in
06:32 33.3 °F 12.1 °F 30.21 in South 4.2 mph -999.0 mph 41 % 0 in
06:47 34.3 °F 10.1 °F 30.21 in NW 3.2 mph -999.0 mph 36 % 0 in
07:17 40.5 °F 5.6 °F 30.21 in South 2.2 mph -999.0 mph 23 % 0 in
07:33 42.6 °F 9.2 °F 30.22 in SSE 1.1 mph -999.0 mph 25 % 0 in
07:48 45.0 °F 10.3 °F 30.22 in South 2.2 mph -999.0 mph 24 % 0 in
08:03 46.8 °F 14.5 °F 30.22 in Calm   -999.0 mph 27 % 0 in
08:18 48.4 °F 18.4 °F 30.22 in Calm   -999.0 mph 30 % 0 in
08:34 49.8 °F 23.2 °F 30.22 in SE 2.2 mph -999.0 mph 35 % 0 in
09:04 53.1 °F 20.0 °F 30.22 in NW 2.2 mph -999.0 mph 27 % 0 in
09:19 54.1 °F 19.9 °F 30.23 in West 2.2 mph -999.0 mph 26 % 0 in
09:34 54.5 °F 22.0 °F 30.23 in Calm   -999.0 mph 28 % 0 in
09:50 54.7 °F 27.6 °F 30.23 in NNE 1.7 mph -999.0 mph 35 % 0 in
10:36 56.1 °F 34.5 °F 30.23 in NW 4.7 mph -999.0 mph 44 % 0 in
10:51 56.7 °F 34.4 °F 30.24 in North 4.7 mph -999.0 mph 43 % 0 in
11:52 59.2 °F 35.5 °F 30.21 in NNW 3.7 mph -999.0 mph 41 % 0 in
12:24 60.6 °F 35.5 °F 30.19 in NNE 3.7 mph -999.0 mph 39 % 0 in
12:39 60.6 °F 37.4 °F 30.19 in NW 3.2 mph -999.0 mph 42 % 0 in
12:54 61.0 °F 36.5 °F 30.19 in North 4.2 mph -999.0 mph 40 % 0 in
13:09 60.8 °F 35.7 °F 30.19 in South 2.2 mph -999.0 mph 39 % 0 in
13:41 59.4 °F 33.8 °F 30.18 in NW 4.7 mph -999.0 mph 38 % 0 in
13:56 59.2 °F 35.5 °F 30.19 in NNW 3.2 mph -999.0 mph 41 % 0 in
14:27 57.7 °F 32.9 °F 30.20 in NNW 3.7 mph -999.0 mph 39 % 0 in
14:42 57.0 °F 33.5 °F 30.20 in NNW 6.8 mph -999.0 mph 41 % 0 in
14:57 56.1 °F 32.1 °F 30.21 in NNW 4.2 mph -999.0 mph 40 % 0 in
15:28 55.6 °F 32.9 °F 30.21 in NW 4.2 mph -999.0 mph 42 % 0 in
15:43 54.7 °F 33.8 °F 30.21 in NNW 3.7 mph -999.0 mph 45 % 0 in
16:14 53.4 °F 34.7 °F 30.21 in NNW 3.7 mph -999.0 mph 49 % 0 in
16:29 52.7 °F 35.1 °F 30.21 in NW 2.2 mph -999.0 mph 51 % 0 in
16:45 52.0 °F 33.9 °F 30.21 in NNE 3.2 mph -999.0 mph 50 % 0 in
17:15 50.7 °F 32.7 °F 30.22 in Calm   -999.0 mph 50 % 0 in
18:01 48.0 °F 29.7 °F 30.23 in Calm   -999.0 mph 49 % 0 in
18:16 47.1 °F 29.9 °F 30.24 in Calm   -999.0 mph 51 % 0 in
18:31 46.2 °F 29.1 °F 30.24 in SSE 1.7 mph -999.0 mph 51 % 0 in
18:46 46.6 °F 28.9 °F 30.25 in SSE 2.7 mph -999.0 mph 50 % 0 in
19:01 45.9 °F 28.8 °F 30.25 in South 2.7 mph -999.0 mph 51 % 0 in
19:32 45.0 °F 28.4 °F 30.25 in SE 2.2 mph -999.0 mph 52 % 0 in
19:47 44.6 °F 29.0 °F 30.26 in Calm   -999.0 mph 54 % 0 in
20:02 44.6 °F 30.7 °F 30.26 in Calm   -999.0 mph 58 % 0 in
20:17 43.9 °F 29.6 °F 30.26 in Calm   -999.0 mph 57 % 0 in
20:33 43.2 °F 29.4 °F 30.27 in Calm   -999.0 mph 58 % 0 in
20:48 42.6 °F 29.3 °F 30.26 in Calm   -999.0 mph 59 % 0 in
21:34 40.6 °F 29.0 °F 30.28 in Calm   -999.0 mph 63 % 0 in
22:04 40.3 °F 30.9 °F 30.29 in Calm   -999.0 mph 69 % 0 in
22:19 39.9 °F 31.3 °F 30.29 in Calm   -999.0 mph 71 % 0 in
22:34 39.6 °F 30.6 °F 30.29 in Calm   -999.0 mph 70 % 0 in
22:50 39.4 °F 30.8 °F 30.29 in Calm   -999.0 mph 71 % 0 in
23:05 39.2 °F 31.9 °F 30.29 in Calm   -999.0 mph 75 % 0 in
23:20 38.7 °F 31.8 °F 30.29 in Calm   -999.0 mph 76 % 0 in
23:35 38.5 °F 31.3 °F 30.29 in Calm   -999.0 mph 75 % 0 in
Big Bear CA Weather
Compliments of Weather Underground - 1.5 mb